Time;durP1;ratioP1;P1;durP2;ratioP2;P2;SDS_P1;SDS_P2;PMS_P1;PMS_P2;Temp;Humidity;BMP_temperature;BMP_pressure;BME280_temperature;BME280_humidity;BME280_pressure;Samples;Min_cycle;Max_cycle;Signal;HPM_P1;HPM_P2
2023/03/29 00:00:19;;;;;;;2.53;2.10;;;;;;;;;;5058724;28;20119;-61
2023/03/29 00:02:48;;;;;;;2.38;2.20;;;;;;;;;;5061827;28;20059;-60
2023/03/29 00:05:14;;;;;;;2.35;1.88;;;;;;;;;;5060322;28;20045;-61
2023/03/29 00:07:41;;;;;;;1.90;1.80;;;;;;;;;;5056920;28;20067;-60
2023/03/29 00:10:09;;;;;;;4.35;2.28;;;;;;;;;;5059912;28;20044;-61
2023/03/29 00:12:35;;;;;;;1.75;1.65;;;;;;;;;;5060782;28;20076;-61
2023/03/29 00:15:02;;;;;;;3.10;2.13;;;;;;;;;;5058090;28;20090;-59
2023/03/29 00:17:28;;;;;;;2.30;2.08;;;;;;;;;;5055886;28;20076;-62
2023/03/29 00:19:54;;;;;;;1.67;1.48;;;;;;;;;;5058288;28;20063;-60
2023/03/29 00:22:20;;;;;;;1.70;1.60;;;;;;;;;;5059198;28;20047;-59
2023/03/29 00:24:47;;;;;;;3.03;1.60;;;;;;;;;;5054320;28;20055;-61
2023/03/29 00:27:15;;;;;;;2.45;2.03;;;;;;;;;;5058362;28;20052;-61
2023/03/29 00:29:41;;;;;;;4.57;1.90;;;;;;;;;;5060957;28;20048;-60
2023/03/29 00:32:07;;;;;;;2.05;1.67;;;;;;;;;;5059500;28;20072;-59
2023/03/29 00:34:35;;;;;;;2.50;1.85;;;;;;;;;;5059411;28;20123;-59
2023/03/29 00:37:01;;;;;;;2.50;2.10;;;;;;;;;;5059842;28;20603;-60
2023/03/29 00:39:28;;;;;;;1.95;1.83;;;;;;;;;;5059077;28;20037;-59
2023/03/29 00:41:54;;;;;;;1.52;1.42;;;;;;;;;;5059943;28;20060;-59
2023/03/29 00:44:39;;;;;;;2.65;2.25;;;;;;;;;;5059291;28;20055;-60
2023/03/29 00:47:05;;;;;;;3.72;2.00;;;;;;;;;;5057548;28;20101;-61
2023/03/29 00:49:31;;;;;;;3.92;2.15;;;;;;;;;;5058542;28;20128;-59
2023/03/29 00:51:57;;;;;;;1.83;1.52;;;;;;;;;;5059811;28;20044;-59
2023/03/29 00:54:23;;;;;;;3.05;2.17;;;;;;;;;;5059236;28;20113;-61
2023/03/29 00:56:50;;;;;;;2.38;2.13;;;;;;;;;;5060103;28;20428;-59
2023/03/29 00:59:22;;;;;;;3.75;2.40;;;;;;;;;;5058649;28;20079;-62
2023/03/29 01:01:53;;;;;;;4.47;1.97;;;;;;;;;;5053323;28;20048;-61
2023/03/29 01:04:19;;;;;;;2.20;2.00;;;;;;;;;;5056128;28;20646;-59
2023/03/29 01:06:58;;;;;;;2.55;1.73;;;;;;;;;;5060476;28;20064;-60
2023/03/29 01:09:26;;;;;;;2.83;1.90;;;;;;;;;;5054928;28;20079;-61
2023/03/29 01:11:54;;;;;;;2.17;1.77;;;;;;;;;;5060578;28;20072;-61
2023/03/29 01:14:23;;;;;;;2.70;2.50;;;;;;;;;;5057681;28;20439;-61
2023/03/29 01:16:49;;;;;;;2.63;2.05;;;;;;;;;;5053012;28;20044;-59
2023/03/29 01:19:17;;;;;;;2.40;2.00;;;;;;;;;;5058418;28;20164;-61
2023/03/29 01:21:52;;;;;;;1.85;1.75;;;;;;;;;;5059931;28;20052;-61
2023/03/29 01:24:40;;;;;;;2.55;1.67;;;;;;;;;;5055101;28;20504;-61
2023/03/29 01:27:15;;;;;;;2.63;1.88;;;;;;;;;;5056712;28;20050;-59
2023/03/29 01:30:02;;;;;;;3.33;2.22;;;;;;;;;;5059551;28;20049;-61
2023/03/29 01:32:38;;;;;;;2.38;1.92;;;;;;;;;;5054781;28;20056;-61
2023/03/29 01:35:11;;;;;;;3.10;1.85;;;;;;;;;;5058944;28;20068;-61
2023/03/29 01:37:42;;;;;;;2.88;2.40;;;;;;;;;;5056748;28;20055;-61
2023/03/29 01:40:09;;;;;;;2.00;1.75;;;;;;;;;;5058385;28;20055;-61
2023/03/29 01:42:38;;;;;;;2.30;2.00;;;;;;;;;;5058371;28;20045;-61
2023/03/29 01:45:10;;;;;;;2.25;2.05;;;;;;;;;;5057992;28;20052;-61
2023/03/29 01:47:36;;;;;;;;;;;;;;;;;;5038874;28;20376;-59
2023/03/29 01:50:11;;;;;;;2.28;2.08;;;;;;;;;;5058627;28;19966;-59
2023/03/29 01:52:52;;;;;;;2.97;1.40;;;;;;;;;;5056662;28;20092;-59
2023/03/29 01:55:21;;;;;;;1.67;1.55;;;;;;;;;;5054796;28;20199;-60
2023/03/29 01:57:48;;;;;;;2.90;1.77;;;;;;;;;;5059634;28;20116;-59
2023/03/29 02:00:16;;;;;;;2.83;1.90;;;;;;;;;;5056974;28;20124;-59
2023/03/29 02:02:44;;;;;;;3.88;1.92;;;;;;;;;;5059189;28;20056;-61
2023/03/29 02:05:11;;;;;;;1.85;1.70;;;;;;;;;;5057603;28;20160;-61
2023/03/29 02:07:39;;;;;;;2.33;2.10;;;;;;;;;;5054995;28;20181;-59
2023/03/29 02:10:06;;;;;;;2.45;1.45;;;;;;;;;;5056271;28;20373;-60
2023/03/29 02:12:32;;;;;;;2.05;1.60;;;;;;;;;;5054805;28;20041;-61
2023/03/29 02:15:03;;;;;;;3.80;1.73;;;;;;;;;;5057221;28;20055;-61
2023/03/29 02:17:30;;;;;;;2.70;2.50;;;;;;;;;;5052545;28;20076;-59
2023/03/29 02:19:56;;;;;;;2.88;2.22;;;;;;;;;;5050062;28;20680;-59
2023/03/29 02:22:27;;;;;;;2.13;1.80;;;;;;;;;;5056318;28;20045;-62
2023/03/29 02:24:57;;;;;;;3.00;1.98;;;;;;;;;;5052953;28;20088;-60
2023/03/29 02:27:24;;;;;;;3.28;2.60;;;;;;;;;;5055662;28;20095;-61
2023/03/29 02:29:50;;;;;;;3.50;2.30;;;;;;;;;;5057059;28;20122;-62
2023/03/29 02:32:18;;;;;;;2.35;2.15;;;;;;;;;;5053150;28;20708;-59
2023/03/29 02:34:48;;;;;;;3.13;2.60;;;;;;;;;;5052296;28;20510;-59
2023/03/29 02:37:16;;;;;;;2.45;1.95;;;;;;;;;;5048738;28;20510;-61
2023/03/29 02:39:43;;;;;;;2.63;1.90;;;;;;;;;;5057815;28;20036;-59
2023/03/29 02:42:09;;;;;;;2.90;2.22;;;;;;;;;;5054217;28;20051;-61
2023/03/29 02:44:37;;;;;;;3.95;2.42;;;;;;;;;;5054036;28;20040;-59
2023/03/29 02:47:12;;;;;;;2.72;2.45;;;;;;;;;;5053412;28;20044;-59
2023/03/29 02:49:39;;;;;;;3.15;2.38;;;;;;;;;;5052226;28;20518;-59
2023/03/29 02:52:08;;;;;;;5.10;2.50;;;;;;;;;;5055592;28;20048;-61
2023/03/29 02:54:36;;;;;;;2.65;2.45;;;;;;;;;;5054914;28;20049;-59
2023/03/29 02:57:05;;;;;;;3.38;2.35;;;;;;;;;;5056563;28;20072;-61
2023/03/29 02:59:32;;;;;;;2.42;2.17;;;;;;;;;;5053606;28;20049;-61
2023/03/29 03:01:58;;;;;;;3.95;2.60;;;;;;;;;;5056751;28;20056;-60
2023/03/29 03:04:25;;;;;;;2.83;1.95;;;;;;;;;;5056810;28;20127;-61
2023/03/29 03:06:51;;;;;;;3.08;2.42;;;;;;;;;;5057106;28;20060;-59
2023/03/29 03:09:17;;;;;;;2.80;2.45;;;;;;;;;;5059809;28;20114;-61
2023/03/29 03:11:43;;;;;;;6.10;3.15;;;;;;;;;;5059601;28;20773;-60
2023/03/29 03:14:09;;;;;;;4.10;3.28;;;;;;;;;;5061313;28;20087;-61
2023/03/29 03:16:36;;;;;;;3.88;3.20;;;;;;;;;;5060090;28;20047;-61
2023/03/29 03:19:02;;;;;;;4.05;3.08;;;;;;;;;;5051858;28;20519;-59
2023/03/29 03:21:28;;;;;;;4.68;2.83;;;;;;;;;;5061280;28;20044;-59
2023/03/29 03:23:54;;;;;;;6.57;3.17;;;;;;;;;;5050525;28;20518;-59
2023/03/29 03:26:21;;;;;;;3.20;2.85;;;;;;;;;;5055804;28;20132;-59
2023/03/29 03:28:47;;;;;;;2.30;2.10;;;;;;;;;;5057751;28;20109;-61
2023/03/29 03:31:13;;;;;;;3.22;2.53;;;;;;;;;;5055546;28;20044;-61
2023/03/29 03:33:42;;;;;;;3.90;2.70;;;;;;;;;;5053901;28;20403;-59
2023/03/29 03:36:09;;;;;;;3.10;2.80;;;;;;;;;;5054869;28;20048;-61
2023/03/29 03:38:36;;;;;;;3.17;2.53;;;;;;;;;;5055450;28;20048;-59
2023/03/29 03:41:02;;;;;;;6.85;2.80;;;;;;;;;;5054322;28;20601;-59
2023/03/29 03:43:28;;;;;;;4.07;3.20;;;;;;;;;;5053375;28;20044;-61
2023/03/29 03:45:55;;;;;;;4.90;2.60;;;;;;;;;;5057159;28;20098;-59
2023/03/29 03:48:22;;;;;;;5.60;2.58;;;;;;;;;;5053843;28;20048;-61
2023/03/29 03:50:52;;;;;;;4.43;3.15;;;;;;;;;;5057867;28;20041;-60
2023/03/29 03:53:18;;;;;;;3.67;2.85;;;;;;;;;;5054977;28;20064;-61
2023/03/29 03:55:48;;;;;;;3.38;2.80;;;;;;;;;;5057381;28;20053;-62
2023/03/29 03:58:14;;;;;;;4.03;3.13;;;;;;;;;;5054692;28;20060;-60
2023/03/29 04:00:41;;;;;;;4.75;3.28;;;;;;;;;;5056808;28;20087;-61
2023/03/29 04:03:07;;;;;;;3.65;2.90;;;;;;;;;;5059443;28;20040;-61
2023/03/29 04:05:33;;;;;;;2.70;2.50;;;;;;;;;;5055261;28;20110;-60
2023/03/29 04:07:59;;;;;;;3.38;2.70;;;;;;;;;;5056660;28;20143;-62
2023/03/29 04:10:25;;;;;;;3.25;2.95;;;;;;;;;;5055044;28;20420;-59
2023/03/29 04:12:51;;;;;;;3.70;2.90;;;;;;;;;;5053482;28;20060;-59
2023/03/29 04:15:19;;;;;;;3.15;2.72;;;;;;;;;;5048048;28;20055;-61
2023/03/29 04:17:45;;;;;;;3.75;2.95;;;;;;;;;;5051484;28;20127;-59
2023/03/29 04:20:11;;;;;;;2.55;2.35;;;;;;;;;;5054660;28;20560;-59
2023/03/29 04:22:38;;;;;;;3.20;2.88;;;;;;;;;;5048134;28;20587;-59
2023/03/29 04:25:05;;;;;;;4.10;2.53;;;;;;;;;;5056444;28;20144;-59
2023/03/29 04:27:31;;;;;;;3.90;2.88;;;;;;;;;;5051737;28;20052;-61
2023/03/29 04:29:57;;;;;;;4.15;2.97;;;;;;;;;;5054264;28;20052;-59
2023/03/29 04:32:23;;;;;;;3.40;3.10;;;;;;;;;;5055243;28;20682;-59
2023/03/29 04:34:49;;;;;;;3.95;2.60;;;;;;;;;;5054370;28;20077;-59
2023/03/29 04:37:20;;;;;;;4.07;2.88;;;;;;;;;;5050489;28;20067;-60
2023/03/29 04:39:47;;;;;;;4.30;3.08;;;;;;;;;;5058683;28;20135;-61
2023/03/29 04:42:13;;;;;;;3.65;2.95;;;;;;;;;;5059573;28;20059;-59
2023/03/29 04:44:41;;;;;;;3.35;2.95;;;;;;;;;;5056456;28;20129;-59
2023/03/29 04:47:07;;;;;;;3.95;2.28;;;;;;;;;;5050947;28;20099;-61
2023/03/29 04:49:33;;;;;;;4.32;3.22;;;;;;;;;;5054848;28;20048;-59
2023/03/29 04:51:59;;;;;;;5.22;3.42;;;;;;;;;;5054183;28;20043;-60
2023/03/29 04:54:26;;;;;;;4.55;3.97;;;;;;;;;;5056101;28;20399;-59
2023/03/29 04:56:52;;;;;;;3.42;3.13;;;;;;;;;;5057497;28;20052;-60
2023/03/29 04:59:18;;;;;;;5.30;4.00;;;;;;;;;;5057139;28;20044;-61
2023/03/29 05:01:44;;;;;;;3.75;3.30;;;;;;;;;;5060414;28;20087;-59
2023/03/29 05:04:10;;;;;;;3.55;3.25;;;;;;;;;;5053683;28;20548;-62
2023/03/29 05:06:37;;;;;;;6.25;3.38;;;;;;;;;;5054777;28;20131;-61
2023/03/29 05:09:03;;;;;;;5.45;3.85;;;;;;;;;;5059142;28;20126;-60
2023/03/29 05:11:30;;;;;;;4.32;3.88;;;;;;;;;;5059323;28;20544;-61
2023/03/29 05:14:01;;;;;;;4.13;3.13;;;;;;;;;;5060590;28;20471;-61
2023/03/29 05:16:28;;;;;;;3.42;2.92;;;;;;;;;;5054376;28;20045;-60
2023/03/29 05:18:55;;;;;;;3.55;3.17;;;;;;;;;;5050021;28;20670;-58
2023/03/29 05:21:22;;;;;;;5.22;3.33;;;;;;;;;;5054286;28;20095;-60
2023/03/29 05:23:48;;;;;;;3.60;3.15;;;;;;;;;;5049878;28;20052;-61
2023/03/29 05:26:14;;;;;;;4.05;3.20;;;;;;;;;;5052968;28;20040;-59
2023/03/29 05:28:41;;;;;;;4.82;2.75;;;;;;;;;;5058141;28;20055;-61
2023/03/29 05:31:07;;;;;;;5.53;3.53;;;;;;;;;;5055605;28;20052;-59
2023/03/29 05:33:34;;;;;;;4.80;3.55;;;;;;;;;;5059898;28;20049;-59
2023/03/29 05:36:18;;;;;;;3.95;3.55;;;;;;;;;;5052606;28;20045;-59
2023/03/29 05:38:48;;;;;;;10.40;3.75;;;;;;;;;;5050677;28;20626;-61
2023/03/29 05:41:14;;;;;;;4.05;3.30;;;;;;;;;;5054325;28;20064;-59
2023/03/29 05:43:41;;;;;;;6.70;3.53;;;;;;;;;;5057598;28;20127;-61
2023/03/29 05:46:07;;;;;;;4.70;3.42;;;;;;;;;;5054451;28;20045;-59
2023/03/29 05:48:33;;;;;;;3.38;3.03;;;;;;;;;;5053585;28;20123;-60
2023/03/29 05:50:59;;;;;;;4.30;3.83;;;;;;;;;;5051725;28;20037;-59
2023/03/29 05:53:26;;;;;;;5.47;4.00;;;;;;;;;;5056963;28;20082;-59
2023/03/29 05:55:52;;;;;;;5.35;4.15;;;;;;;;;;5056776;28;20558;-59
2023/03/29 05:58:20;;;;;;;8.30;5.20;;;;;;;;;;5049747;28;20503;-61
2023/03/29 06:00:48;;;;;;;6.50;4.45;;;;;;;;;;5058087;28;20064;-61
2023/03/29 06:03:19;;;;;;;4.10;3.70;;;;;;;;;;5056729;28;20052;-59
2023/03/29 06:05:46;;;;;;;4.80;4.28;;;;;;;;;;5054072;28;20457;-62
2023/03/29 06:08:13;;;;;;;4.90;4.50;;;;;;;;;;5051814;28;20064;-61
2023/03/29 06:10:39;;;;;;;4.45;4.05;;;;;;;;;;5058025;28;20076;-61
2023/03/29 06:13:05;;;;;;;4.55;4.10;;;;;;;;;;5054263;28;20040;-61
2023/03/29 06:15:32;;;;;;;8.15;5.20;;;;;;;;;;5052536;28;20507;-59
2023/03/29 06:17:58;;;;;;;4.75;4.18;;;;;;;;;;5053262;28;20048;-59
2023/03/29 06:20:25;;;;;;;5.43;4.63;;;;;;;;;;5057240;28;20415;-60
2023/03/29 06:22:51;;;;;;;6.20;4.93;;;;;;;;;;5056813;28;20062;-62
2023/03/29 06:25:18;;;;;;;5.38;4.07;;;;;;;;;;5051751;28;20049;-61
2023/03/29 06:27:45;;;;;;;5.32;4.38;;;;;;;;;;5055396;28;20455;-59
2023/03/29 06:30:12;;;;;;;4.75;4.18;;;;;;;;;;5053617;28;20063;-62
2023/03/29 06:32:40;;;;;;;5.00;4.43;;;;;;;;;;5050151;28;20056;-61
2023/03/29 06:35:06;;;;;;;4.53;4.13;;;;;;;;;;5051324;28;20123;-59
2023/03/29 06:37:32;;;;;;;5.00;4.03;;;;;;;;;;5043647;28;20524;-61
2023/03/29 06:39:59;;;;;;;5.20;4.38;;;;;;;;;;5048385;28;20084;-61
2023/03/29 06:42:25;;;;;;;5.13;4.63;;;;;;;;;;5053739;28;20395;-60
2023/03/29 06:44:52;;;;;;;5.80;5.10;;;;;;;;;;5046156;28;20040;-61
2023/03/29 06:47:18;;;;;;;4.88;4.38;;;;;;;;;;5055772;28;20128;-59
2023/03/29 06:49:45;;;;;;;7.20;5.63;;;;;;;;;;5058385;28;20383;-60
2023/03/29 06:52:11;;;;;;;5.15;4.47;;;;;;;;;;5051333;28;20053;-58
2023/03/29 06:54:37;;;;;;;6.80;4.60;;;;;;;;;;5051084;28;20045;-59
2023/03/29 06:57:04;;;;;;;6.65;5.25;;;;;;;;;;5043043;28;20045;-61
2023/03/29 06:59:30;;;;;;;5.00;4.50;;;;;;;;;;5044496;28;20040;-60
2023/03/29 07:01:56;;;;;;;5.10;4.60;;;;;;;;;;5050916;28;20486;-62
2023/03/29 07:04:23;;;;;;;6.72;4.57;;;;;;;;;;5048512;28;20463;-61
2023/03/29 07:07:00;;;;;;;5.35;4.45;;;;;;;;;;5057142;28;20083;-61
2023/03/29 07:09:28;;;;;;;6.57;5.93;;;;;;;;;;5040727;28;20135;-61
2023/03/29 07:11:54;;;;;;;6.25;5.63;;;;;;;;;;5046153;28;20136;-64
2023/03/29 07:14:20;;;;;;;7.85;5.65;;;;;;;;;;5055878;28;20037;-61
2023/03/29 07:16:47;;;;;;;6.13;5.53;;;;;;;;;;5041679;28;20036;-61
2023/03/29 07:19:14;;;;;;;5.70;5.00;;;;;;;;;;5043170;28;20078;-61
2023/03/29 07:21:40;;;;;;;6.95;5.20;;;;;;;;;;5044312;28;20268;-61
2023/03/29 07:24:07;;;;;;;7.82;5.72;;;;;;;;;;5042729;28;20487;-61
2023/03/29 07:26:33;;;;;;;6.22;5.30;;;;;;;;;;5044021;28;20048;-59
2023/03/29 07:28:59;;;;;;;5.20;4.72;;;;;;;;;;5044173;28;20041;-62
2023/03/29 07:31:28;;;;;;;4.50;4.00;;;;;;;;;;5044424;28;20044;-60
2023/03/29 07:33:54;;;;;;;7.22;5.50;;;;;;;;;;5052090;28;20522;-60
2023/03/29 07:36:21;;;;;;;6.65;5.25;;;;;;;;;;5047887;28;20062;-60
2023/03/29 07:38:47;;;;;;;6.53;5.22;;;;;;;;;;5040281;28;20037;-59
2023/03/29 07:41:13;;;;;;;7.82;5.60;;;;;;;;;;5050079;28;20044;-60
2023/03/29 07:43:40;;;;;;;6.82;5.32;;;;;;;;;;5053663;28;20128;-62
2023/03/29 07:46:08;;;;;;;6.22;5.63;;;;;;;;;;5057624;28;20482;-61
2023/03/29 07:48:38;;;;;;;5.68;5.18;;;;;;;;;;5062409;28;20106;-61
2023/03/29 07:51:04;;;;;;;6.00;4.90;;;;;;;;;;5061376;28;20132;-59
2023/03/29 07:53:31;;;;;;;5.63;4.88;;;;;;;;;;5062187;28;20128;-61
2023/03/29 07:55:57;;;;;;;8.00;5.95;;;;;;;;;;5064733;28;20098;-61
2023/03/29 07:58:23;;;;;;;8.43;5.50;;;;;;;;;;5064876;28;20105;-60
2023/03/29 08:00:49;;;;;;;7.13;5.57;;;;;;;;;;5065432;28;20099;-59
2023/03/29 08:03:15;;;;;;;5.35;4.85;;;;;;;;;;5065430;28;20056;-61
2023/03/29 08:05:42;;;;;;;6.75;5.82;;;;;;;;;;5064560;28;20041;-61
2023/03/29 08:08:08;;;;;;;6.50;5.90;;;;;;;;;;5064468;28;20060;-59
2023/03/29 08:10:35;;;;;;;8.90;5.85;;;;;;;;;;5065437;28;20060;-61
2023/03/29 08:13:03;;;;;;;7.35;5.38;;;;;;;;;;5063938;28;20519;-59
2023/03/29 08:15:29;;;;;;;6.30;5.28;;;;;;;;;;5065604;28;20045;-62
2023/03/29 08:17:55;;;;;;;7.60;5.88;;;;;;;;;;5066391;28;20048;-59
2023/03/29 08:20:21;;;;;;;7.22;5.70;;;;;;;;;;5066637;28;20036;-61
2023/03/29 08:22:47;;;;;;;8.40;5.93;;;;;;;;;;5066651;28;20576;-59
2023/03/29 08:25:13;;;;;;;5.47;4.90;;;;;;;;;;5066738;28;20044;-61
2023/03/29 08:27:39;;;;;;;5.72;5.07;;;;;;;;;;5067114;28;20051;-60
2023/03/29 08:30:08;;;;;;;5.57;5.07;;;;;;;;;;5068886;28;20055;-61
2023/03/29 08:32:34;;;;;;;6.90;4.90;;;;;;;;;;5068381;28;20652;-59
2023/03/29 08:35:02;;;;;;;5.43;4.90;;;;;;;;;;5068594;28;20082;-60
2023/03/29 08:37:28;;;;;;;7.22;5.85;;;;;;;;;;5068408;28;20131;-59
2023/03/29 08:39:54;;;;;;;7.22;5.55;;;;;;;;;;5056544;28;20045;-60
2023/03/29 08:42:48;;;;;;;7.55;5.45;;;;;;;;;;5047604;28;20047;-60
2023/03/29 08:45:20;;;;;;;7.75;5.57;;;;;;;;;;5063308;28;20476;-62
2023/03/29 08:47:46;;;;;;;;;;;;;;;;;;5068333;28;20540;-61
2023/03/29 08:50:13;;;;;;;5.68;5.15;;;;;;;;;;5060924;28;19927;-61
2023/03/29 08:52:48;;;;;;;8.73;5.80;;;;;;;;;;5043369;28;20099;-60
2023/03/29 08:55:26;;;;;;;9.93;6.40;;;;;;;;;;5038934;28;20131;-61
2023/03/29 08:57:53;;;;;;;7.43;6.03;;;;;;;;;;5048841;28;20049;-62
2023/03/29 09:00:42;;;;;;;8.27;6.25;;;;;;;;;;5047875;28;20055;-62
2023/03/29 09:03:10;;;;;;;7.90;6.10;;;;;;;;;;5043817;28;20138;-60
2023/03/29 09:05:43;;;;;;;7.32;5.78;;;;;;;;;;5045919;28;20048;-58
2023/03/29 09:08:15;;;;;;;8.02;5.82;;;;;;;;;;5044682;28;20458;-58
2023/03/29 09:10:55;;;;;;;6.20;5.60;;;;;;;;;;5045342;28;20040;-60
2023/03/29 09:13:40;;;;;;;9.57;5.88;;;;;;;;;;5046604;28;20075;-58
2023/03/29 09:16:11;;;;;;;5.18;4.72;;;;;;;;;;5043671;28;20051;-58
2023/03/29 09:18:44;;;;;;;11.07;5.35;;;;;;;;;;5047719;28;20743;-58
2023/03/29 09:21:21;;;;;;;6.72;5.78;;;;;;;;;;5047541;28;20107;-58
2023/03/29 09:23:54;;;;;;;6.60;5.80;;;;;;;;;;5046326;28;20048;-58
2023/03/29 09:26:27;;;;;;;7.50;6.03;;;;;;;;;;5047379;28;20488;-60
2023/03/29 09:28:53;;;;;;;6.88;6.15;;;;;;;;;;5047254;28;20080;-57
2023/03/29 09:31:19;;;;;;;10.57;6.35;;;;;;;;;;5047186;28;20080;-58
2023/03/29 09:33:51;;;;;;;9.65;6.47;;;;;;;;;;5028369;28;20471;-61
2023/03/29 09:36:27;;;;;;;14.10;6.68;;;;;;;;;;5027601;28;20049;-59
2023/03/29 09:38:54;;;;;;;9.02;6.50;;;;;;;;;;5029981;28;20102;-59
2023/03/29 09:41:23;;;;;;;9.65;6.57;;;;;;;;;;5038534;28;20045;-58
2023/03/29 09:43:50;;;;;;;11.80;7.43;;;;;;;;;;5047096;28;20110;-58
2023/03/29 09:46:22;;;;;;;10.57;7.53;;;;;;;;;;5045389;28;20902;-58
2023/03/29 09:48:49;;;;;;;11.07;7.20;;;;;;;;;;5045291;28;20041;-58
2023/03/29 09:51:16;;;;;;;11.27;7.57;;;;;;;;;;5045566;28;20112;-61
2023/03/29 09:53:42;;;;;;;10.27;6.13;;;;;;;;;;5045958;28;20102;-58
2023/03/29 09:56:09;;;;;;;17.05;7.88;;;;;;;;;;5045392;28;20462;-59
2023/03/29 09:58:35;;;;;;;13.13;7.05;;;;;;;;;;5044754;28;20407;-58
2023/03/29 10:01:04;;;;;;;11.27;6.97;;;;;;;;;;5046123;28;20073;-58
2023/03/29 10:03:32;;;;;;;10.00;7.18;;;;;;;;;;5044592;28;20124;-58
2023/03/29 10:06:00;;;;;;;11.63;7.35;;;;;;;;;;5045763;28;20383;-58
2023/03/29 10:08:30;;;;;;;10.57;6.90;;;;;;;;;;5046812;28;20450;-63
2023/03/29 10:10:57;;;;;;;8.43;7.03;;;;;;;;;;5045869;28;20044;-60
2023/03/29 10:13:29;;;;;;;12.00;7.22;;;;;;;;;;5044561;28;20036;-60
2023/03/29 10:16:00;;;;;;;11.73;7.85;;;;;;;;;;5045311;28;20049;-59
2023/03/29 10:18:27;;;;;;;14.10;8.57;;;;;;;;;;5045799;28;20090;-58
2023/03/29 10:20:58;;;;;;;11.15;8.13;;;;;;;;;;5066689;28;20041;-59
2023/03/29 10:23:29;;;;;;;11.63;7.97;;;;;;;;;;5065991;28;20121;-60
2023/03/29 10:25:55;;;;;;;14.43;9.35;;;;;;;;;;5066158;28;20053;-59
2023/03/29 10:28:21;;;;;;;14.10;8.18;;;;;;;;;;5067113;28;20052;-59
2023/03/29 10:30:52;;;;;;;13.13;8.73;;;;;;;;;;5066321;28;20411;-59
2023/03/29 10:33:19;;;;;;;10.00;6.55;;;;;;;;;;5066050;28;20048;-59
2023/03/29 10:35:46;;;;;;;11.63;6.97;;;;;;;;;;5065920;28;20059;-60
2023/03/29 10:38:14;;;;;;;10.45;7.82;;;;;;;;;;5065604;28;20120;-59
2023/03/29 10:40:42;;;;;;;11.30;8.55;;;;;;;;;;5062545;28;20432;-59
2023/03/29 10:43:17;;;;;;;10.48;9.05;;;;;;;;;;5064121;28;20270;-61
2023/03/29 10:45:43;;;;;;;9.43;7.22;;;;;;;;;;5064901;28;20040;-61
2023/03/29 10:48:13;;;;;;;10.48;8.40;;;;;;;;;;5063646;28;20040;-59
2023/03/29 10:50:40;;;;;;;14.95;9.40;;;;;;;;;;5064497;28;20487;-60
2023/03/29 10:53:13;;;;;;;12.00;9.02;;;;;;;;;;5064093;28;20044;-59
2023/03/29 10:55:58;;;;;;;10.93;8.82;;;;;;;;;;5066312;28;20041;-62
2023/03/29 10:58:31;;;;;;;13.05;9.70;;;;;;;;;;5066548;28;20105;-59
2023/03/29 11:00:57;;;;;;;11.82;8.60;;;;;;;;;;5065466;28;20387;-58
2023/03/29 11:03:53;;;;;;;10.23;7.90;;;;;;;;;;5066427;28;20210;-59
2023/03/29 11:06:19;;;;;;;10.57;8.35;;;;;;;;;;5060955;28;20063;-59
2023/03/29 11:08:49;;;;;;;12.98;9.02;;;;;;;;;;5065167;28;20056;-60
2023/03/29 11:11:15;;;;;;;10.93;8.23;;;;;;;;;;5065862;28;20048;-59
2023/03/29 11:13:48;;;;;;;12.68;8.57;;;;;;;;;;5065919;28;20105;-60
2023/03/29 11:16:15;;;;;;;11.10;8.52;;;;;;;;;;5065083;28;20102;-62
2023/03/29 11:18:50;;;;;;;11.23;8.73;;;;;;;;;;5066027;28;20491;-61
2023/03/29 11:21:35;;;;;;;9.52;8.05;;;;;;;;;;5064987;28;20515;-59
2023/03/29 11:24:12;;;;;;;11.55;9.32;;;;;;;;;;5065445;28;20044;-60
2023/03/29 11:26:41;;;;;;;12.73;9.13;;;;;;;;;;5066086;28;20156;-59
2023/03/29 11:29:10;;;;;;;10.68;9.40;;;;;;;;;;5065058;28;20041;-61
2023/03/29 11:32:12;;;;;;;13.65;9.02;;;;;;;;;;5065792;28;20047;-61
2023/03/29 11:34:56;;;;;;;12.27;9.57;;;;;;;;;;5042766;28;20406;-59
2023/03/29 11:37:22;;;;;;;12.45;9.15;;;;;;;;;;5063948;28;20057;-58
2023/03/29 11:40:06;;;;;;;11.50;8.43;;;;;;;;;;5066210;28;20056;-63
2023/03/29 11:42:34;;;;;;;13.68;10.13;;;;;;;;;;5065325;28;20110;-60
2023/03/29 11:45:01;;;;;;;10.88;9.65;;;;;;;;;;5065147;28;20047;-59
2023/03/29 11:47:31;;;;;;;9.68;8.40;;;;;;;;;;5066710;28;20116;-63
2023/03/29 11:49:59;;;;;;;13.75;9.23;;;;;;;;;;5069191;28;20052;-61
2023/03/29 11:52:37;;;;;;;10.38;8.95;;;;;;;;;;5069871;28;20040;-58
2023/03/29 11:55:09;;;;;;;7.97;7.20;;;;;;;;;;5069292;28;20084;-62
2023/03/29 11:58:01;;;;;;;12.55;9.52;;;;;;;;;;5068904;28;20554;-59
2023/03/29 12:00:32;;;;;;;11.32;9.15;;;;;;;;;;5060711;28;20040;-59
2023/03/29 12:03:13;;;;;;;11.25;9.05;;;;;;;;;;5068924;28;20523;-59
2023/03/29 12:05:42;;;;;;;12.68;8.13;;;;;;;;;;5068589;28;20403;-61
2023/03/29 12:08:15;;;;;;;12.13;9.23;;;;;;;;;;5068858;28;20510;-59
2023/03/29 12:10:44;;;;;;;10.75;9.38;;;;;;;;;;5068901;28;20757;-59
2023/03/29 12:13:13;;;;;;;13.52;10.68;;;;;;;;;;5069163;28;20045;-59
2023/03/29 12:15:44;;;;;;;12.02;9.57;;;;;;;;;;5067773;28;20037;-61
2023/03/29 12:18:31;;;;;;;12.55;9.38;;;;;;;;;;5068105;28;20127;-59
2023/03/29 12:21:02;;;;;;;12.45;10.15;;;;;;;;;;5068869;28;20040;-61
2023/03/29 12:23:33;;;;;;;12.98;9.23;;;;;;;;;;5069272;28;20041;-62
2023/03/29 12:26:01;;;;;;;10.45;7.85;;;;;;;;;;5068011;28;20387;-60
2023/03/29 12:28:34;;;;;;;12.05;9.68;;;;;;;;;;5068980;28;20417;-59
2023/03/29 12:31:09;;;;;;;12.82;10.25;;;;;;;;;;5068549;28;20044;-61
2023/03/29 12:33:53;;;;;;;11.32;8.65;;;;;;;;;;5067960;28;20048;-59
2023/03/29 12:36:19;;;;;;;10.75;9.10;;;;;;;;;;5068920;28;20057;-61
2023/03/29 12:38:46;;;;;;;11.75;9.43;;;;;;;;;;5068034;28;20574;-60
2023/03/29 12:41:17;;;;;;;9.70;8.60;;;;;;;;;;5068114;28;20079;-59
2023/03/29 12:43:44;;;;;;;11.13;8.80;;;;;;;;;;5069034;28;20526;-60
2023/03/29 12:46:15;;;;;;;12.32;9.15;;;;;;;;;;5067595;28;20507;-61
2023/03/29 12:48:41;;;;;;;11.82;8.80;;;;;;;;;;5068647;28;20044;-60
2023/03/29 12:51:11;;;;;;;10.15;7.88;;;;;;;;;;5068232;28;20572;-60
2023/03/29 12:53:41;;;;;;;9.10;8.15;;;;;;;;;;5067061;28;20060;-59
2023/03/29 12:56:12;;;;;;;11.40;8.73;;;;;;;;;;5067989;28;20089;-61
2023/03/29 12:58:38;;;;;;;10.45;8.38;;;;;;;;;;5068578;28;20052;-59
2023/03/29 13:01:23;;;;;;;11.70;8.13;;;;;;;;;;5067307;28;20048;-59
2023/03/29 13:03:56;;;;;;;13.90;9.13;;;;;;;;;;5068784;28;20048;-61
2023/03/29 13:06:52;;;;;;;12.27;9.43;;;;;;;;;;5068652;28;20044;-60
2023/03/29 13:09:22;;;;;;;10.25;9.25;;;;;;;;;;5068425;28;20056;-60
2023/03/29 13:11:53;;;;;;;9.93;8.93;;;;;;;;;;5068397;28;20461;-59
2023/03/29 13:14:20;;;;;;;13.85;11.73;;;;;;;;;;5067774;28;20044;-59
2023/03/29 13:16:47;;;;;;;12.70;10.70;;;;;;;;;;5067884;28;20087;-61
2023/03/29 13:19:31;;;;;;;11.20;9.73;;;;;;;;;;5067754;28;20507;-60
2023/03/29 13:22:01;;;;;;;11.32;9.57;;;;;;;;;;5065862;28;20109;-59
2023/03/29 13:24:49;;;;;;;11.10;9.90;;;;;;;;;;5068099;28;20411;-61
2023/03/29 13:27:36;;;;;;;9.65;8.60;;;;;;;;;;5067909;28;20048;-59
2023/03/29 13:30:02;;;;;;;10.65;9.50;;;;;;;;;;5066493;28;20725;-62
2023/03/29 13:32:40;;;;;;;10.13;9.02;;;;;;;;;;5067796;28;20052;-61
2023/03/29 13:35:14;;;;;;;9.10;8.02;;;;;;;;;;5066745;28;20634;-59
2023/03/29 13:37:59;;;;;;;9.60;8.52;;;;;;;;;;5067673;28;20086;-59
2023/03/29 13:40:31;;;;;;;9.43;8.45;;;;;;;;;;5067964;28;20083;-59
2023/03/29 13:42:59;;;;;;;7.30;6.57;;;;;;;;;;5066428;28;20125;-59
2023/03/29 13:45:26;;;;;;;8.57;7.10;;;;;;;;;;5067692;28;20368;-59
2023/03/29 13:48:04;;;;;;;8.73;7.50;;;;;;;;;;5067166;28;20052;-59
2023/03/29 13:50:36;;;;;;;10.38;7.32;;;;;;;;;;5066791;28;20055;-59
2023/03/29 13:53:40;;;;;;;11.18;7.97;;;;;;;;;;5067070;28;20075;-61
2023/03/29 13:56:10;;;;;;;10.68;8.52;;;;;;;;;;5038566;28;20056;-61
2023/03/29 13:58:36;;;;;;;12.20;9.40;;;;;;;;;;5029087;28;20069;-60
2023/03/29 14:01:08;;;;;;;9.65;8.32;;;;;;;;;;5028375;28;20123;-61
2023/03/29 14:03:40;;;;;;;9.63;8.43;;;;;;;;;;5066556;28;20253;-60
2023/03/29 14:06:06;;;;;;;9.60;8.60;;;;;;;;;;5066288;28;20053;-61
2023/03/29 14:08:41;;;;;;;9.23;8.13;;;;;;;;;;5060655;28;20121;-59
2023/03/29 14:11:12;;;;;;;9.40;7.80;;;;;;;;;;5037073;28;20516;-63
2023/03/29 14:13:38;;;;;;;9.20;7.90;;;;;;;;;;5043497;28;20095;-59
2023/03/29 14:16:09;;;;;;;9.52;8.63;;;;;;;;;;5050609;28;20105;-59
2023/03/29 14:18:43;;;;;;;10.45;8.90;;;;;;;;;;5065743;28;20080;-59
2023/03/29 14:21:11;;;;;;;11.90;9.20;;;;;;;;;;5065453;28;20072;-59
2023/03/29 14:23:37;;;;;;;10.73;8.27;;;;;;;;;;5047427;28;20059;-61
2023/03/29 14:26:05;;;;;;;9.63;8.68;;;;;;;;;;5044148;28;20817;-59
2023/03/29 14:28:32;;;;;;;8.65;7.75;;;;;;;;;;5046102;28;20041;-59
2023/03/29 14:30:58;;;;;;;7.93;7.18;;;;;;;;;;5044692;28;20381;-59
2023/03/29 14:33:27;;;;;;;8.30;7.50;;;;;;;;;;5040452;28;20056;-59
2023/03/29 14:35:57;;;;;;;7.72;6.50;;;;;;;;;;5030707;28;20165;-59
2023/03/29 14:38:25;;;;;;;7.78;6.97;;;;;;;;;;5026362;28;20407;-58
2023/03/29 14:40:51;;;;;;;9.68;8.02;;;;;;;;;;5033481;28;20610;-59
2023/03/29 14:43:18;;;;;;;7.93;7.13;;;;;;;;;;5046218;28;20048;-62
2023/03/29 14:45:45;;;;;;;9.77;7.38;;;;;;;;;;5045988;28;20092;-59
2023/03/29 14:48:14;;;;;;;9.13;6.72;;;;;;;;;;5045926;28;20052;-61
2023/03/29 14:50:41;;;;;;;7.30;6.47;;;;;;;;;;5045996;28;20041;-59
2023/03/29 14:53:07;;;;;;;8.30;7.05;;;;;;;;;;5036063;28;20074;-60